Ridgefield, Illinois
Current Conditions -  °F | °C
As of 9:52 AM on Friday 31 Oct 2014 (Local Time) from KPWK Reporting Station
Overcast Overcast  
Wind Chill: 28°   Ceiling: 4500
Heat Index: 39°   Visibility: 10mi
Dew Point: 27°   Wind: 24mph
Humidity: 62%   Direction: 350°N
Pressure: 30.15"   Gusts: 44mph
Location:  42.2766°N, 88.31°W
Report Text: KPWK 311452Z 35021G38KT 10SM SCT034 BKN045 OVC070 04/M03 A3015 RMK AO2 PK WND 32038/1445 SLP214 60001 T00391028 51016
Loading
Personal Weather Stations






























Interactive Weather Map
Tropical Storm Tracking
New forecast layout! Learn more

10-Day Weather Forecast

Advertisements
Track Severe Weather on mobile